Time;durP1;ratioP1;P1;durP2;ratioP2;P2;SDS_P1;SDS_P2;PMS_P1;PMS_P2;Temp;Humidity;BMP_temperature;BMP_pressure;BME280_temperature;BME280_humidity;BME280_pressure;Samples;Min_cycle;Max_cycle;Signal;HPM_P1;HPM_P2
2023/10/22 00:00:44;;;;;;;5.07;1.50;;;;;;;;;;5012788;28;20184;-69
2023/10/22 00:03:10;;;;;;;6.67;1.90;;;;;;;;;;5014031;28;20187;-69
2023/10/22 00:05:36;;;;;;;4.07;1.90;;;;;;;;;;5014344;28;20180;-69
2023/10/22 00:08:02;;;;;;;4.77;1.40;;;;;;;;;;4994294;28;20218;-69
2023/10/22 00:10:28;;;;;;;5.57;1.77;;;;;;;;;;4993097;28;20559;-70
2023/10/22 00:12:54;;;;;;;3.20;1.40;;;;;;;;;;4994405;28;20219;-70
2023/10/22 00:15:20;;;;;;;3.83;1.50;;;;;;;;;;4994058;28;20594;-69
2023/10/22 00:17:49;;;;;;;6.67;2.07;;;;;;;;;;4992765;28;20204;-69
2023/10/22 00:20:15;;;;;;;4.47;1.37;;;;;;;;;;4993935;28;20184;-69
2023/10/22 00:22:41;;;;;;;4.07;1.40;;;;;;;;;;4992698;28;20190;-70
2023/10/22 00:25:08;;;;;;;3.77;1.30;;;;;;;;;;4993928;28;20203;-70
2023/10/22 00:27:34;;;;;;;3.97;1.60;;;;;;;;;;4993778;28;20223;-70
2023/10/22 00:30:00;;;;;;;4.33;1.80;;;;;;;;;;4993979;28;20204;-70
2023/10/22 00:32:26;;;;;;;2.57;1.33;;;;;;;;;;4993162;28;20184;-70
2023/10/22 00:34:52;;;;;;;5.37;1.57;;;;;;;;;;4992662;28;20662;-70
2023/10/22 00:37:18;;;;;;;4.10;1.53;;;;;;;;;;4993909;28;20204;-69
2023/10/22 00:39:44;;;;;;;2.63;1.50;;;;;;;;;;4992571;28;20191;-69
2023/10/22 00:42:11;;;;;;;5.53;1.97;;;;;;;;;;4992599;28;20239;-69
2023/10/22 00:44:37;;;;;;;4.00;1.37;;;;;;;;;;4993838;28;20665;-69
2023/10/22 00:47:04;;;;;;;6.43;2.20;;;;;;;;;;4993885;28;20230;-69
2023/10/22 00:49:30;;;;;;;6.77;2.17;;;;;;;;;;4992386;28;20208;-69
2023/10/22 00:51:56;;;;;;;7.83;1.87;;;;;;;;;;4993963;28;20181;-69
2023/10/22 00:54:23;;;;;;;4.73;1.67;;;;;;;;;;4994262;28;20183;-69
2023/10/22 00:56:50;;;;;;;6.20;1.80;;;;;;;;;;4992757;28;20622;-70
2023/10/22 00:59:16;;;;;;;11.83;2.00;;;;;;;;;;4992566;28;20176;-69
2023/10/22 01:01:42;;;;;;;8.67;1.63;;;;;;;;;;4993462;28;20193;-69
2023/10/22 01:04:08;;;;;;;5.27;1.80;;;;;;;;;;5002590;28;20184;-69
2023/10/22 01:06:36;;;;;;;5.07;1.93;;;;;;;;;;5009052;28;20196;-70
2023/10/22 01:09:02;;;;;;;5.30;1.60;;;;;;;;;;5002296;28;20721;-69
2023/10/22 01:11:28;;;;;;;7.50;2.03;;;;;;;;;;4999802;28;20207;-70
2023/10/22 01:13:54;;;;;;;5.53;1.83;;;;;;;;;;4999353;28;20245;-69
2023/10/22 01:16:20;;;;;;;5.87;1.53;;;;;;;;;;4997658;28;20235;-69
2023/10/22 01:18:46;;;;;;;4.00;1.60;;;;;;;;;;4997371;28;20184;-70
2023/10/22 01:21:12;;;;;;;4.17;1.90;;;;;;;;;;4996639;28;20242;-69
2023/10/22 01:23:39;;;;;;;3.93;1.50;;;;;;;;;;4996369;28;20181;-70
2023/10/22 01:26:08;;;;;;;5.73;1.90;;;;;;;;;;4996482;28;20666;-69
2023/10/22 01:28:34;;;;;;;2.33;1.17;;;;;;;;;;4997976;28;20247;-70
2023/10/22 01:31:00;;;;;;;3.20;1.60;;;;;;;;;;4996539;28;20604;-70
2023/10/22 01:33:26;;;;;;;6.10;1.73;;;;;;;;;;4997657;28;20227;-69
2023/10/22 01:35:52;;;;;;;5.97;1.77;;;;;;;;;;4997413;28;20179;-70
2023/10/22 01:38:19;;;;;;;5.07;1.47;;;;;;;;;;4997428;28;20177;-69
2023/10/22 01:40:45;;;;;;;4.77;1.60;;;;;;;;;;4995958;28;20196;-70
2023/10/22 01:43:11;;;;;;;5.77;1.80;;;;;;;;;;4995822;28;20191;-69
2023/10/22 01:45:36;;;;;;;4.87;1.77;;;;;;;;;;4995598;28;20192;-69
2023/10/22 01:48:02;;;;;;;3.43;1.33;;;;;;;;;;4996722;28;20238;-70
2023/10/22 01:50:28;;;;;;;4.63;1.50;;;;;;;;;;4995465;28;20181;-70
2023/10/22 01:52:54;;;;;;;3.27;1.10;;;;;;;;;;4995741;28;20181;-68
2023/10/22 01:55:20;;;;;;;3.67;1.60;;;;;;;;;;4997012;28;20177;-68
2023/10/22 01:57:46;;;;;;;5.37;1.47;;;;;;;;;;4995288;28;20720;-68
2023/10/22 02:00:12;;;;;;;2.50;1.47;;;;;;;;;;4996420;28;20181;-68
2023/10/22 02:02:39;;;;;;;2.40;1.17;;;;;;;;;;4993994;28;20795;-69
2023/10/22 02:05:06;;;;;;;2.70;1.30;;;;;;;;;;4994093;28;20387;-68
2023/10/22 02:07:32;;;;;;;2.03;1.10;;;;;;;;;;4996345;28;20193;-69
2023/10/22 02:09:58;;;;;;;3.17;1.30;;;;;;;;;;4995102;28;20212;-69
2023/10/22 02:12:30;;;;;;;3.70;1.37;;;;;;;;;;4996473;28;20589;-69
2023/10/22 02:14:56;;;;;;;3.03;1.40;;;;;;;;;;4995032;28;20180;-68
2023/10/22 02:17:22;;;;;;;2.47;1.30;;;;;;;;;;4994791;28;20235;-68
2023/10/22 02:19:48;;;;;;;3.80;1.27;;;;;;;;;;4994995;28;20410;-68
2023/10/22 02:22:16;;;;;;;5.03;1.33;;;;;;;;;;4996032;28;20231;-69
2023/10/22 02:24:42;;;;;;;3.80;1.30;;;;;;;;;;4996103;28;20259;-69
2023/10/22 02:27:08;;;;;;;2.47;1.40;;;;;;;;;;4994868;28;20231;-69
2023/10/22 02:29:34;;;;;;;2.43;1.33;;;;;;;;;;4994681;28;20204;-69
2023/10/22 02:32:00;;;;;;;2.20;1.33;;;;;;;;;;4994647;28;20177;-69
2023/10/22 02:34:26;;;;;;;2.47;1.20;;;;;;;;;;4994613;28;20180;-70
2023/10/22 02:36:52;;;;;;;3.70;1.77;;;;;;;;;;4994468;28;20247;-69
2023/10/22 02:39:20;;;;;;;3.83;1.17;;;;;;;;;;4996445;28;20176;-69
2023/10/22 02:41:46;;;;;;;1.73;0.90;;;;;;;;;;4996197;28;20622;-69
2023/10/22 02:44:12;;;;;;;3.33;1.20;;;;;;;;;;4995648;28;20176;-69
2023/10/22 02:46:38;;;;;;;2.10;1.13;;;;;;;;;;4995643;28;20196;-69
2023/10/22 02:49:04;;;;;;;6.30;1.30;;;;;;;;;;4994293;28;20270;-69
2023/10/22 02:51:30;;;;;;;1.33;1.00;;;;;;;;;;4995706;28;20202;-69
2023/10/22 02:53:56;;;;;;;2.63;1.30;;;;;;;;;;4995645;28;20182;-69
2023/10/22 02:56:23;;;;;;;2.67;1.30;;;;;;;;;;4993938;28;20219;-68
2023/10/22 02:58:49;;;;;;;3.83;1.47;;;;;;;;;;4995819;28;20651;-70
2023/10/22 03:01:17;;;;;;;2.73;1.33;;;;;;;;;;4995379;28;20212;-69
2023/10/22 03:03:44;;;;;;;3.30;1.40;;;;;;;;;;4995721;28;20267;-69
2023/10/22 03:06:11;;;;;;;4.13;1.20;;;;;;;;;;4995510;28;20265;-70
2023/10/22 03:08:38;;;;;;;1.57;1.00;;;;;;;;;;4995243;28;20208;-70
2023/10/22 03:11:04;;;;;;;2.37;1.27;;;;;;;;;;4995584;28;20180;-69
2023/10/22 03:13:31;;;;;;;1.97;1.10;;;;;;;;;;4993899;28;20177;-69
2023/10/22 03:15:59;;;;;;;2.80;1.60;;;;;;;;;;4993761;28;20871;-69
2023/10/22 03:18:26;;;;;;;2.37;1.27;;;;;;;;;;4993706;28;20231;-69
2023/10/22 03:20:52;;;;;;;4.37;1.73;;;;;;;;;;4994780;28;20248;-69
2023/10/22 03:23:18;;;;;;;2.93;1.50;;;;;;;;;;4994882;28;20247;-69
2023/10/22 03:25:45;;;;;;;1.70;1.30;;;;;;;;;;4993702;28;20671;-69
2023/10/22 03:28:11;;;;;;;1.53;1.37;;;;;;;;;;4994293;28;20188;-69
2023/10/22 03:30:40;;;;;;;2.53;1.40;;;;;;;;;;4993579;28;20180;-69
2023/10/22 03:33:06;;;;;;;2.00;1.27;;;;;;;;;;4993790;28;20342;-69
2023/10/22 03:35:35;;;;;;;2.07;1.27;;;;;;;;;;4994701;28;20648;-69
2023/10/22 03:38:01;;;;;;;3.00;1.27;;;;;;;;;;4994552;28;20196;-70
2023/10/22 03:40:27;;;;;;;2.47;1.30;;;;;;;;;;4993442;28;20188;-69
2023/10/22 03:42:53;;;;;;;2.37;1.20;;;;;;;;;;4995162;28;20176;-70
2023/10/22 03:45:19;;;;;;;3.00;1.30;;;;;;;;;;4994613;28;20243;-69
2023/10/22 03:47:45;;;;;;;1.63;1.20;;;;;;;;;;4994479;28;20251;-69
2023/10/22 03:50:11;;;;;;;1.37;1.20;;;;;;;;;;4993349;28;20744;-70
2023/10/22 03:52:37;;;;;;;1.77;1.40;;;;;;;;;;5002539;28;20191;-70
2023/10/22 03:55:04;;;;;;;3.73;1.70;;;;;;;;;;5007239;28;20183;-69
2023/10/22 03:57:30;;;;;;;2.50;1.60;;;;;;;;;;5001798;28;20300;-70
2023/10/22 03:59:56;;;;;;;1.50;1.40;;;;;;;;;;4999444;28;20263;-70
2023/10/22 04:02:23;;;;;;;2.97;1.93;;;;;;;;;;4995002;28;20180;-70
2023/10/22 04:04:49;;;;;;;2.10;1.40;;;;;;;;;;4995081;28;20177;-70
2023/10/22 04:07:15;;;;;;;3.30;1.43;;;;;;;;;;4994013;28;20207;-70
2023/10/22 04:09:40;;;;;;;3.07;1.20;;;;;;;;;;4995128;28;20219;-69
2023/10/22 04:12:08;;;;;;;2.23;1.27;;;;;;;;;;4995425;28;20234;-70
2023/10/22 04:14:36;;;;;;;3.37;1.30;;;;;;;;;;4993931;28;20541;-70
2023/10/22 04:17:02;;;;;;;5.07;1.43;;;;;;;;;;4994606;28;20287;-69
2023/10/22 04:19:28;;;;;;;2.00;1.10;;;;;;;;;;4992986;28;20212;-70
2023/10/22 04:21:54;;;;;;;1.57;1.13;;;;;;;;;;4992907;28;20670;-70
2023/10/22 04:24:20;;;;;;;1.93;1.00;;;;;;;;;;4994614;28;20558;-70
2023/10/22 04:26:46;;;;;;;2.40;1.17;;;;;;;;;;4994072;28;20547;-70
2023/10/22 04:29:12;;;;;;;3.50;1.00;;;;;;;;;;4994114;28;20282;-69
2023/10/22 04:31:38;;;;;;;3.00;1.23;;;;;;;;;;4992799;28;20176;-70
2023/10/22 04:34:04;;;;;;;0.87;0.87;;;;;;;;;;4994198;28;20180;-70
2023/10/22 04:36:30;;;;;;;3.33;1.10;;;;;;;;;;4992820;28;20200;-69
2023/10/22 04:38:56;;;;;;;4.90;1.10;;;;;;;;;;4993955;28;20680;-69
2023/10/22 04:41:22;;;;;;;1.40;0.90;;;;;;;;;;4997740;28;20691;-70
2023/10/22 04:43:48;;;;;;;1.70;0.90;;;;;;;;;;4998255;28;20635;-69
2023/10/22 04:46:14;;;;;;;2.47;1.03;;;;;;;;;;4998160;28;20200;-71
2023/10/22 04:48:40;;;;;;;4.97;1.13;;;;;;;;;;4997953;28;20231;-70
2023/10/22 04:51:07;;;;;;;1.80;0.90;;;;;;;;;;4996535;28;20181;-70
2023/10/22 04:53:36;;;;;;;1.20;1.10;;;;;;;;;;4996970;28;20559;-70
2023/10/22 04:56:02;;;;;;;1.80;1.07;;;;;;;;;;4997656;28;20200;-70
2023/10/22 04:58:28;;;;;;;1.37;1.00;;;;;;;;;;4997963;28;20708;-70
2023/10/22 05:00:55;;;;;;;1.43;0.80;;;;;;;;;;4997650;28;20239;-70
2023/10/22 05:03:21;;;;;;;0.90;0.90;;;;;;;;;;4997707;28;20557;-69
2023/10/22 05:05:47;;;;;;;2.93;0.97;;;;;;;;;;4997990;28;20194;-69
2023/10/22 05:08:13;;;;;;;1.73;0.90;;;;;;;;;;4997296;28;20184;-69
2023/10/22 05:10:39;;;;;;;1.40;0.93;;;;;;;;;;4997648;28;20231;-70
2023/10/22 05:13:06;;;;;;;1.00;0.80;;;;;;;;;;4996306;28;20180;-69
2023/10/22 05:15:32;;;;;;;0.93;0.83;;;;;;;;;;4997818;28;20590;-69
2023/10/22 05:17:58;;;;;;;0.90;0.80;;;;;;;;;;4997376;28;20223;-70
2023/10/22 05:20:28;;;;;;;1.20;0.80;;;;;;;;;;4997685;28;20209;-69
2023/10/22 05:22:54;;;;;;;1.80;1.03;;;;;;;;;;4997335;28;20223;-70
2023/10/22 05:25:22;;;;;;;1.33;0.80;;;;;;;;;;4995977;28;20555;-71
2023/10/22 05:27:48;;;;;;;1.77;0.90;;;;;;;;;;4997124;28;20234;-71
2023/10/22 05:30:14;;;;;;;1.43;0.80;;;;;;;;;;4997559;28;20200;-70
2023/10/22 05:32:40;;;;;;;1.13;0.90;;;;;;;;;;4996952;28;20184;-70
2023/10/22 05:35:07;;;;;;;2.50;1.20;;;;;;;;;;4997352;28;20549;-69
2023/10/22 05:37:33;;;;;;;1.17;0.93;;;;;;;;;;4995407;28;20251;-69
2023/10/22 05:39:59;;;;;;;2.23;1.03;;;;;;;;;;4996785;28;20180;-69
2023/10/22 05:42:25;;;;;;;1.83;1.10;;;;;;;;;;4996866;28;20239;-69
2023/10/22 05:44:51;;;;;;;1.57;1.00;;;;;;;;;;4997239;28;20188;-69
2023/10/22 05:47:18;;;;;;;0.80;0.80;;;;;;;;;;4996496;28;20255;-69
2023/10/22 05:49:44;;;;;;;1.23;0.97;;;;;;;;;;4996894;28;20670;-69
2023/10/22 05:52:10;;;;;;;2.33;1.10;;;;;;;;;;4996184;28;20187;-70
2023/10/22 05:54:36;;;;;;;1.00;0.80;;;;;;;;;;4997086;28;20235;-69
2023/10/22 05:57:02;;;;;;;1.80;1.03;;;;;;;;;;4995363;28;20228;-69
2023/10/22 05:59:29;;;;;;;2.60;1.03;;;;;;;;;;4997046;28;20670;-70
2023/10/22 06:01:55;;;;;;;1.80;1.20;;;;;;;;;;4996866;28;20260;-73
2023/10/22 06:04:21;;;;;;;2.17;1.13;;;;;;;;;;4996637;28;20211;-69
2023/10/22 06:06:46;;;;;;;0.90;0.87;;;;;;;;;;4995002;28;20215;-68
2023/10/22 06:09:13;;;;;;;0.97;0.80;;;;;;;;;;4995004;28;20642;-69
2023/10/22 06:11:39;;;;;;;0.90;0.90;;;;;;;;;;4996782;28;20204;-68
2023/10/22 06:14:06;;;;;;;1.60;0.93;;;;;;;;;;4996687;28;20223;-69
2023/10/22 06:16:32;;;;;;;1.37;1.17;;;;;;;;;;4994983;28;20255;-69
2023/10/22 06:18:58;;;;;;;4.30;1.23;;;;;;;;;;4996721;28;20639;-69
2023/10/22 06:21:24;;;;;;;1.33;1.00;;;;;;;;;;4996415;28;20247;-68
2023/10/22 06:23:50;;;;;;;1.10;1.00;;;;;;;;;;4995128;28;20188;-68
2023/10/22 06:26:17;;;;;;;2.40;1.00;;;;;;;;;;4994850;28;20646;-68
2023/10/22 06:28:43;;;;;;;2.53;0.90;;;;;;;;;;4994778;28;20273;-68
2023/10/22 06:31:12;;;;;;;2.77;1.00;;;;;;;;;;4996388;28;20270;-69
2023/10/22 06:33:39;;;;;;;1.30;1.10;;;;;;;;;;4997496;28;20177;-69
2023/10/22 06:36:15;;;;;;;2.67;1.30;;;;;;;;;;5036313;22;20293;-71
2023/10/22 06:38:41;;;;;;;2.00;1.10;;;;;;;;;;5024729;28;20210;-70
2023/10/22 06:41:18;;;;;;;1.50;1.00;;;;;;;;;;5028223;28;20191;-68
2023/10/22 06:43:44;;;;;;;4.83;1.20;;;;;;;;;;5015758;28;20175;-70
2023/10/22 06:46:10;;;;;;;2.03;1.30;;;;;;;;;;5014804;28;20214;-70
2023/10/22 06:48:37;;;;;;;3.47;1.20;;;;;;;;;;5015734;28;20203;-70
2023/10/22 06:51:03;;;;;;;2.37;0.90;;;;;;;;;;5014186;28;20195;-70
2023/10/22 06:53:30;;;;;;;3.47;1.10;;;;;;;;;;5015725;28;20175;-70
2023/10/22 06:55:56;;;;;;;1.00;0.90;;;;;;;;;;5013947;28;20211;-70
2023/10/22 06:58:22;;;;;;;4.73;1.17;;;;;;;;;;5015412;28;20172;-70
2023/10/22 07:00:48;;;;;;;1.47;1.20;;;;;;;;;;5015179;28;20175;-70
2023/10/22 07:03:14;;;;;;;1.87;1.40;;;;;;;;;;5013837;28;20172;-70
2023/10/22 07:05:40;;;;;;;3.23;1.23;;;;;;;;;;5014920;28;20290;-70
2023/10/22 07:08:06;;;;;;;2.07;1.10;;;;;;;;;;5014832;28;20176;-71
2023/10/22 07:10:32;;;;;;;4.13;1.20;;;;;;;;;;5013708;28;20275;-70
2023/10/22 07:12:59;;;;;;;1.63;1.40;;;;;;;;;;5013627;28;20211;-70
2023/10/22 07:15:25;;;;;;;1.83;1.10;;;;;;;;;;5013546;28;20299;-70
2023/10/22 07:17:51;;;;;;;1.23;1.10;;;;;;;;;;5015778;28;20694;-71
2023/10/22 07:20:18;;;;;;;3.10;1.30;;;;;;;;;;5013392;28;20672;-71
2023/10/22 07:22:44;;;;;;;1.37;1.07;;;;;;;;;;5014819;28;20662;-71
2023/10/22 07:25:10;;;;;;;2.47;1.17;;;;;;;;;;5014756;28;20282;-71
2023/10/22 07:27:36;;;;;;;2.23;1.20;;;;;;;;;;5013103;28;20274;-71
2023/10/22 07:30:05;;;;;;;4.03;1.30;;;;;;;;;;5013706;28;20242;-71
2023/10/22 07:32:31;;;;;;;1.63;1.20;;;;;;;;;;5014707;28;20214;-71
2023/10/22 07:34:57;;;;;;;1.27;1.03;;;;;;;;;;5014178;28;20227;-71
2023/10/22 07:37:23;;;;;;;2.80;1.30;;;;;;;;;;5014556;28;20210;-71
2023/10/22 07:39:49;;;;;;;2.67;2.10;;;;;;;;;;5014937;28;20546;-70
2023/10/22 07:42:15;;;;;;;4.50;2.60;;;;;;;;;;5012968;28;20183;-71
2023/10/22 07:44:41;;;;;;;2.37;1.57;;;;;;;;;;5012809;28;20282;-72
2023/10/22 07:47:07;;;;;;;1.30;1.20;;;;;;;;;;5012897;28;20661;-72
2023/10/22 07:49:33;;;;;;;3.80;1.70;;;;;;;;;;5014629;28;20568;-72
2023/10/22 07:51:59;;;;;;;2.80;2.40;;;;;;;;;;5014156;28;20183;-71
2023/10/22 07:54:26;;;;;;;3.17;1.40;;;;;;;;;;5014312;28;20226;-71
2023/10/22 07:56:52;;;;;;;3.33;1.30;;;;;;;;;;5014184;28;20681;-71
2023/10/22 07:59:18;;;;;;;6.80;4.40;;;;;;;;;;5012674;28;20180;-71
2023/10/22 08:01:43;;;;;;;3.43;2.33;;;;;;;;;;5014053;28;20271;-71
2023/10/22 08:04:09;;;;;;;5.80;3.77;;;;;;;;;;5012567;28;20184;-71
2023/10/22 08:06:35;;;;;;;5.43;3.67;;;;;;;;;;5013678;28;20199;-71
2023/10/22 08:09:01;;;;;;;4.03;2.50;;;;;;;;;;5012314;28;20200;-71
2023/10/22 08:11:27;;;;;;;5.20;3.37;;;;;;;;;;5013961;28;20207;-71
2023/10/22 08:13:53;;;;;;;8.67;5.90;;;;;;;;;;5014026;28;20176;-71
2023/10/22 08:16:19;;;;;;;3.57;2.43;;;;;;;;;;5012376;28;20196;-72
2023/10/22 08:18:46;;;;;;;6.67;3.00;;;;;;;;;;5013860;28;20199;-71
2023/10/22 08:21:12;;;;;;;2.63;1.97;;;;;;;;;;5013961;28;20176;-71
2023/10/22 08:23:38;;;;;;;4.80;2.47;;;;;;;;;;5014053;28;20180;-71
2023/10/22 08:26:04;;;;;;;5.20;2.20;;;;;;;;;;5012372;28;20199;-71
2023/10/22 08:28:30;;;;;;;2.70;1.63;;;;;;;;;;5013659;28;20225;-71
2023/10/22 08:30:57;;;;;;;2.70;1.53;;;;;;;;;;5012105;28;20710;-71
2023/10/22 08:33:22;;;;;;;1.57;1.30;;;;;;;;;;5012077;28;20179;-70
2023/10/22 08:35:48;;;;;;;3.37;1.50;;;;;;;;;;5013271;28;20606;-72
2023/10/22 08:38:15;;;;;;;3.10;1.63;;;;;;;;;;5013362;28;20562;-70
2023/10/22 08:40:42;;;;;;;1.67;1.57;;;;;;;;;;5012188;28;20180;-70
2023/10/22 08:43:18;;;;;;;4.30;1.57;;;;;;;;;;5013254;28;20172;-71
2023/10/22 08:45:46;;;;;;;4.97;2.10;;;;;;;;;;5011773;28;20678;-71
2023/10/22 08:48:13;;;;;;;7.13;1.93;;;;;;;;;;5013749;28;20178;-70
2023/10/22 08:50:41;;;;;;;2.53;1.80;;;;;;;;;;5023288;28;20168;-70
2023/10/22 08:53:07;;;;;;;3.40;1.67;;;;;;;;;;5021867;28;20180;-70
2023/10/22 08:55:35;;;;;;;1.87;1.60;;;;;;;;;;5016656;28;20704;-70
2023/10/22 08:58:01;;;;;;;2.53;1.50;;;;;;;;;;5014373;28;20168;-71
2023/10/22 09:00:27;;;;;;;2.00;1.43;;;;;;;;;;5013540;28;20184;-72
2023/10/22 09:02:53;;;;;;;1.97;1.77;;;;;;;;;;5013779;28;20187;-71
2023/10/22 09:05:19;;;;;;;4.97;1.70;;;;;;;;;;5013123;28;20575;-70
2023/10/22 09:07:50;;;;;;;1.20;1.10;;;;;;;;;;5013270;28;20172;-70
2023/10/22 09:10:26;;;;;;;3.93;1.63;;;;;;;;;;5011928;28;20208;-71
2023/10/22 09:12:53;;;;;;;2.03;1.30;;;;;;;;;;5013344;28;20553;-71
2023/10/22 09:15:19;;;;;;;3.63;1.93;;;;;;;;;;5013159;28;20192;-71
2023/10/22 09:17:45;;;;;;;3.43;1.87;;;;;;;;;;5013094;28;20593;-71
2023/10/22 09:20:21;;;;;;;2.47;1.30;;;;;;;;;;5013206;28;20709;-70
2023/10/22 09:22:48;;;;;;;3.97;1.57;;;;;;;;;;5013065;28;20263;-71
2023/10/22 09:25:16;;;;;;;2.10;1.27;;;;;;;;;;5012893;28;20212;-71
2023/10/22 09:27:42;;;;;;;4.13;1.10;;;;;;;;;;5014149;28;20890;-71
2023/10/22 09:30:08;;;;;;;1.27;1.07;;;;;;;;;;5016748;28;20318;-70
2023/10/22 09:32:34;;;;;;;1.70;1.13;;;;;;;;;;5016691;28;20171;-71
2023/10/22 09:35:18;;;;;;;3.00;1.30;;;;;;;;;;5016527;28;20208;-70
2023/10/22 09:37:49;;;;;;;2.60;1.10;;;;;;;;;;5016704;28;20160;-71
2023/10/22 09:40:19;;;;;;;5.47;1.40;;;;;;;;;;5017145;28;20156;-70
2023/10/22 09:42:45;;;;;;;1.43;1.10;;;;;;;;;;5016467;28;20176;-71
2023/10/22 09:45:11;;;;;;;2.20;1.30;;;;;;;;;;5015023;28;20526;-71
2023/10/22 09:47:38;;;;;;;1.53;1.43;;;;;;;;;;5016308;28;20704;-71
2023/10/22 09:50:07;;;;;;;4.47;2.50;;;;;;;;;;5016284;28;20329;-71
2023/10/22 09:52:38;;;;;;;3.75;1.40;;;;;;;;;;5013848;28;20380;-71
2023/10/22 09:55:05;;;;;;;1.87;1.17;;;;;;;;;;5016565;28;20215;-71
2023/10/22 09:57:31;;;;;;;1.23;1.10;;;;;;;;;;5017022;28;20180;-71
2023/10/22 10:00:01;;;;;;;4.37;1.60;;;;;;;;;;5016305;28;20680;-70
2023/10/22 10:02:28;;;;;;;2.07;1.30;;;;;;;;;;5016647;28;20620;-70
2023/10/22 10:04:54;;;;;;;6.17;1.13;;;;;;;;;;5016294;28;20220;-70
2023/10/22 10:07:22;;;;;;;1.13;1.00;;;;;;;;;;5016124;28;20186;-70
2023/10/22 10:09:48;;;;;;;3.27;1.20;;;;;;;;;;5014686;28;20693;-70
2023/10/22 10:12:16;;;;;;;2.07;1.00;;;;;;;;;;5016131;28;20696;-71
2023/10/22 10:14:45;;;;;;;3.83;2.43;;;;;;;;;;5014942;28;20557;-72
2023/10/22 10:17:12;;;;;;;7.97;4.80;;;;;;;;;;5024287;28;20180;-70
2023/10/22 10:19:39;;;;;;;9.77;5.47;;;;;;;;;;5022212;28;20272;-70
2023/10/22 10:22:05;;;;;;;6.67;3.53;;;;;;;;;;5023991;28;20184;-71
2023/10/22 10:24:31;;;;;;;5.93;3.33;;;;;;;;;;5022652;28;20187;-71
2023/10/22 10:26:57;;;;;;;15.13;7.67;;;;;;;;;;5022140;28;20200;-70
2023/10/22 10:29:24;;;;;;;5.13;3.50;;;;;;;;;;5014444;28;20258;-70
2023/10/22 10:31:51;;;;;;;5.30;2.43;;;;;;;;;;5014481;28;20184;-71
2023/10/22 10:34:21;;;;;;;4.80;2.90;;;;;;;;;;5015521;28;20172;-70
2023/10/22 10:36:47;;;;;;;3.27;1.60;;;;;;;;;;5015477;28;20212;-72
2023/10/22 10:39:35;;;;;;;2.93;1.73;;;;;;;;;;5013613;28;20545;-71
2023/10/22 10:42:01;;;;;;;16.93;10.40;;;;;;;;;;5015714;28;20623;-70
2023/10/22 10:44:31;;;;;;;5.27;3.10;;;;;;;;;;5015460;28;20211;-70
2023/10/22 10:47:15;;;;;;;5.43;3.47;;;;;;;;;;5015631;28;20194;-69
2023/10/22 10:50:02;;;;;;;4.50;2.73;;;;;;;;;;5015626;28;20206;-70
2023/10/22 10:52:29;;;;;;;5.53;1.80;;;;;;;;;;5015607;28;20222;-71
2023/10/22 10:55:07;;;;;;;7.77;3.80;;;;;;;;;;5016068;28;20210;-70
2023/10/22 10:57:37;;;;;;;3.07;2.13;;;;;;;;;;5015557;28;20580;-71
2023/10/22 11:00:09;;;;;;;3.20;2.00;;;;;;;;;;5016075;28;20267;-69
2023/10/22 11:02:41;;;;;;;7.77;4.90;;;;;;;;;;5021994;28;20168;-70
2023/10/22 11:05:08;;;;;;;9.37;5.83;;;;;;;;;;5020670;28;20206;-70
2023/10/22 11:07:34;;;;;;;3.50;2.17;;;;;;;;;;5017403;28;20180;-70
2023/10/22 11:10:06;;;;;;;1.73;1.50;;;;;;;;;;5015519;28;20239;-70
2023/10/22 11:12:32;;;;;;;3.00;1.90;;;;;;;;;;5015753;28;20167;-69
2023/10/22 11:14:59;;;;;;;3.00;1.77;;;;;;;;;;5016844;28;20196;-71
2023/10/22 11:17:26;;;;;;;3.33;1.57;;;;;;;;;;5014736;28;20176;-70
2023/10/22 11:19:53;;;;;;;2.93;1.97;;;;;;;;;;5015147;28;20523;-71
2023/10/22 11:22:19;;;;;;;1.47;1.33;;;;;;;;;;5014964;28;20176;-71
2023/10/22 11:24:45;;;;;;;2.10;1.60;;;;;;;;;;5015171;28;20685;-71
2023/10/22 11:27:12;;;;;;;3.17;1.63;;;;;;;;;;5013668;28;20184;-71
2023/10/22 11:29:41;;;;;;;2.47;1.47;;;;;;;;;;5013640;28;20266;-72
2023/10/22 11:32:10;;;;;;;1.40;1.30;;;;;;;;;;5014759;28;20219;-71
2023/10/22 11:34:36;;;;;;;2.73;1.93;;;;;;;;;;5014875;28;20180;-72
2023/10/22 11:37:02;;;;;;;4.93;2.60;;;;;;;;;;5015721;28;20218;-72
2023/10/22 11:39:33;;;;;;;2.77;2.27;;;;;;;;;;5014524;28;20176;-71
2023/10/22 11:41:59;;;;;;;1.33;1.20;;;;;;;;;;5014633;28;20267;-71
2023/10/22 11:44:35;;;;;;;2.03;1.47;;;;;;;;;;5014707;28;20704;-71
2023/10/22 11:47:24;;;;;;;1.67;1.50;;;;;;;;;;5014425;28;20270;-72
2023/10/22 11:49:50;;;;;;;3.13;1.47;;;;;;;;;;5014161;28;20567;-70
2023/10/22 11:52:17;;;;;;;1.57;1.30;;;;;;;;;;5012972;28;20179;-71
2023/10/22 11:54:44;;;;;;;3.63;1.60;;;;;;;;;;5012792;28;20210;-71
2023/10/22 11:57:10;;;;;;;2.53;1.40;;;;;;;;;;5013995;28;20263;-71
2023/10/22 11:59:36;;;;;;;2.40;1.60;;;;;;;;;;5014081;28;20183;-71
2023/10/22 12:02:02;;;;;;;2.43;1.50;;;;;;;;;;5012860;28;20290;-70
2023/10/22 12:04:28;;;;;;;2.00;1.47;;;;;;;;;;5014037;28;20180;-71
2023/10/22 12:06:54;;;;;;;2.33;1.30;;;;;;;;;;5014177;28;20673;-71
2023/10/22 12:09:20;;;;;;;5.13;2.07;;;;;;;;;;5012560;28;20657;-71
2023/10/22 12:11:46;;;;;;;1.90;1.70;;;;;;;;;;5012591;28;20230;-71
2023/10/22 12:14:12;;;;;;;7.30;1.30;;;;;;;;;;5014009;28;20202;-71
2023/10/22 12:16:38;;;;;;;3.90;1.63;;;;;;;;;;5013747;28;20222;-70
2023/10/22 12:19:04;;;;;;;2.73;1.40;;;;;;;;;;5012520;28;20178;-71
2023/10/22 12:21:30;;;;;;;4.57;1.40;;;;;;;;;;5012528;28;20183;-71
2023/10/22 12:23:56;;;;;;;2.93;1.30;;;;;;;;;;5014543;28;20233;-71
2023/10/22 12:26:22;;;;;;;1.90;1.40;;;;;;;;;;5012752;28;20203;-72
2023/10/22 12:28:48;;;;;;;3.40;1.50;;;;;;;;;;5014282;28;20210;-73
2023/10/22 12:31:14;;;;;;;3.13;1.20;;;;;;;;;;5012507;28;20180;-71
2023/10/22 12:33:40;;;;;;;2.70;1.50;;;;;;;;;;5013969;28;20180;-73
2023/10/22 12:36:06;;;;;;;4.07;1.40;;;;;;;;;;5041281;22;20231;-69
2023/10/22 12:38:32;;;;;;;1.47;1.37;;;;;;;;;;5012802;28;20239;-69
2023/10/22 12:40:58;;;;;;;3.07;1.27;;;;;;;;;;5014074;28;20703;-69
2023/10/22 12:43:25;;;;;;;3.17;1.67;;;;;;;;;;5014145;28;20186;-69
2023/10/22 12:45:52;;;;;;;2.60;1.60;;;;;;;;;;5013900;28;20227;-68
2023/10/22 12:48:18;;;;;;;2.50;1.40;;;;;;;;;;5012711;28;20183;-70
2023/10/22 12:50:48;;;;;;;1.67;1.27;;;;;;;;;;5013912;28;20180;-70
2023/10/22 12:53:14;;;;;;;3.23;1.30;;;;;;;;;;5012891;28;20274;-70
2023/10/22 12:55:40;;;;;;;2.43;1.20;;;;;;;;;;5013946;28;20180;-69
2023/10/22 12:58:06;;;;;;;1.40;1.17;;;;;;;;;;5014015;28;20653;-70
2023/10/22 13:00:32;;;;;;;1.90;1.20;;;;;;;;;;5012586;28;20176;-69
2023/10/22 13:02:58;;;;;;;4.07;1.37;;;;;;;;;;5017914;28;20180;-68
2023/10/22 13:05:24;;;;;;;2.43;1.20;;;;;;;;;;5017550;28;20248;-68
2023/10/22 13:07:50;;;;;;;3.17;1.50;;;;;;;;;;5017826;28;20180;-67
2023/10/22 13:10:16;;;;;;;2.47;1.47;;;;;;;;;;5017613;28;20572;-67
2023/10/22 13:12:42;;;;;;;3.67;1.47;;;;;;;;;;5017720;28;20263;-68
2023/10/22 13:15:08;;;;;;;2.17;1.10;;;;;;;;;;5017592;28;20591;-68
2023/10/22 13:17:35;;;;;;;2.87;1.30;;;;;;;;;;5017549;28;20286;-67
2023/10/22 13:20:05;;;;;;;2.70;1.30;;;;;;;;;;5016129;28;20188;-67
2023/10/22 13:22:32;;;;;;;1.30;1.00;;;;;;;;;;5016492;28;20176;-67
2023/10/22 13:24:58;;;;;;;3.13;1.30;;;;;;;;;;5017263;28;20184;-68
2023/10/22 13:27:24;;;;;;;1.87;1.20;;;;;;;;;;5016540;28;20222;-67
2023/10/22 13:29:50;;;;;;;2.77;1.07;;;;;;;;;;5016388;28;20207;-67
2023/10/22 13:32:16;;;;;;;3.60;1.33;;;;;;;;;;5018766;28;20180;-69
2023/10/22 13:34:43;;;;;;;2.83;1.20;;;;;;;;;;5018406;28;20553;-68
2023/10/22 13:37:10;;;;;;;3.27;1.13;;;;;;;;;;5016300;28;20216;-68
2023/10/22 13:39:36;;;;;;;2.67;1.23;;;;;;;;;;5016202;28;20202;-69
2023/10/22 13:42:02;;;;;;;1.80;1.20;;;;;;;;;;5016443;28;20721;-68
2023/10/22 13:44:28;;;;;;;1.27;1.00;;;;;;;;;;5016442;28;20542;-69
2023/10/22 13:46:54;;;;;;;1.88;1.10;;;;;;;;;;5015848;28;20443;-70
2023/10/22 13:49:20;;;;;;;1.47;1.10;;;;;;;;;;5017087;28;20242;-68
2023/10/22 13:51:46;;;;;;;3.30;1.20;;;;;;;;;;5015979;28;20598;-69
2023/10/22 13:54:12;;;;;;;3.80;1.20;;;;;;;;;;5017812;28;20172;-69
2023/10/22 13:56:38;;;;;;;1.87;1.10;;;;;;;;;;5017273;28;20669;-69
2023/10/22 13:59:08;;;;;;;4.67;1.10;;;;;;;;;;5017119;28;20559;-69
2023/10/22 14:01:34;;;;;;;1.83;1.20;;;;;;;;;;5017759;28;20298;-72
2023/10/22 14:04:00;;;;;;;2.97;1.20;;;;;;;;;;5018061;28;20225;-69
2023/10/22 14:06:26;;;;;;;2.87;1.63;;;;;;;;;;5017540;28;20208;-71
2023/10/22 14:08:52;;;;;;;6.07;2.23;;;;;;;;;;5017670;28;20207;-72
2023/10/22 14:11:21;;;;;;;3.53;3.20;;;;;;;;;;5015618;28;20188;-72
2023/10/22 14:13:51;;;;;;;3.83;3.00;;;;;;;;;;5017139;28;20188;-71
2023/10/22 14:16:17;;;;;;;3.10;2.17;;;;;;;;;;5017494;28;20204;-71
2023/10/22 14:18:46;;;;;;;2.57;1.53;;;;;;;;;;5017914;28;20725;-72
2023/10/22 14:21:15;;;;;;;5.87;4.23;;;;;;;;;;5019211;28;20202;-71
2023/10/22 14:23:42;;;;;;;1.93;1.43;;;;;;;;;;5018161;28;20179;-71
2023/10/22 14:26:08;;;;;;;2.57;1.70;;;;;;;;;;5018857;28;20200;-71
2023/10/22 14:28:34;;;;;;;2.80;1.80;;;;;;;;;;5017250;28;20184;-70
2023/10/22 14:31:04;;;;;;;2.70;1.50;;;;;;;;;;5017067;28;20216;-70
2023/10/22 14:33:30;;;;;;;1.60;1.50;;;;;;;;;;5016713;28;20187;-70
2023/10/22 14:36:04;;;;;;;2.40;1.67;;;;;;;;;;5018223;28;20208;-70
2023/10/22 14:38:30;;;;;;;1.80;1.63;;;;;;;;;;5015437;28;20171;-70
2023/10/22 14:40:56;;;;;;;2.67;1.70;;;;;;;;;;5017833;28;20180;-71